Language: 


Des rapports , des résumés tant et plus, au choix de chacun....


Données Historiques de Météogheer
Journalier Rapport pour Février 10, 2017 Unitée:  Les deux    Impériale   Métrique
Suivant Jour »
Journalier Hebdomadaire Mensuel Annuel Sur mesure
  Max: Min: Moyenne:
Température: 33.3 °F /  0.7 °C 29.7 °F /  -1.3 °C 31.8 °F /  -0.1 °C
Point de rosée: 32.5 °F /  0.3 °C 29.1 °F /  -1.6 °C 30.4 °F /  -0.9 °C
Humidité: 98% 87% 95%
Vent: 10.5mph /  16.9km/h - 5.8mph /  9.3km/h
Rafales: 17.9mph /  28.8km/h - -
Vent- - ENE
Pression: 30.2 in /  1022.9 hPa 30.1 in /  1018.8 hPa -
Pluie: 0 in /  0.0 mm    
Historical Graphs
 
 
Données tabulaires pour Février 10, 2017
Heure Température Point de rosée Pression Vent Vent Rafales Humidité Pluie Taux (Horaire) Conditions
00:00 33.3 °F /  0.7 °C 32.5 °F /  0.3 °C 30.2in /  1022.9hPa NE 3.8mph /  6.1km/h 6.3mph /  10.1km/h 97% 0in /  0.0mm
00:02 33.3 °F /  0.7 °C 32.5 °F /  0.3 °C 30.2in /  1022.9hPa NE 3.6mph /  5.8km/h 6.5mph /  10.5km/h 97% 0in /  0.0mm
00:07 33.3 °F /  0.7 °C 32.5 °F /  0.3 °C 30.2in /  1021.9hPa NE 4mph /  6.4km/h 6.5mph /  10.5km/h 97% 0in /  0.0mm
00:13 33.1 °F /  0.6 °C 32.4 °F /  0.2 °C 30.2in /  1021.9hPa NE 6.3mph /  10.1km/h 6.5mph /  10.5km/h 97% 0in /  0.0mm
00:18 33.1 °F /  0.6 °C 32.4 °F /  0.2 °C 30.2in /  1021.9hPa NNE 6mph /  9.7km/h 6.5mph /  10.5km/h 97% 0in /  0.0mm
00:23 32.9 °F /  0.5 °C 32.4 °F /  0.2 °C 30.2in /  1021.9hPa NE 5.4mph /  8.7km/h 8.5mph /  13.7km/h 98% 0in /  0.0mm
00:28 32.9 °F /  0.5 °C 32.4 °F /  0.2 °C 30.2in /  1021.9hPa NE 5.6mph /  9.0km/h 8.5mph /  13.7km/h 98% 0in /  0.0mm
00:33 32.9 °F /  0.5 °C 32.4 °F /  0.2 °C 30.2in /  1021.9hPa NE 6.3mph /  10.1km/h 7.2mph /  11.6km/h 98% 0in /  0.0mm
00:38 32.7 °F /  0.4 °C 32.2 °F /  0.1 °C 30.2in /  1021.9hPa NNE 7.8mph /  12.6km/h 7.8mph /  12.6km/h 98% 0in /  0.0mm
00:43 32.7 °F /  0.4 °C 32.2 °F /  0.1 °C 30.2in /  1021.9hPa NE 6mph /  9.7km/h 7.8mph /  12.6km/h 98% 0in /  0.0mm
00:48 32.7 °F /  0.4 °C 32.2 °F /  0.1 °C 30.2in /  1021.9hPa NNE 6.3mph /  10.1km/h 7.6mph /  12.2km/h 98% 0in /  0.0mm
00:53 32.7 °F /  0.4 °C 32.2 °F /  0.1 °C 30.2in /  1021.9hPa NE 3.8mph /  6.1km/h 7.6mph /  12.2km/h 98% 0in /  0.0mm
00:58 32.7 °F /  0.4 °C 32.2 °F /  0.1 °C 30.2in /  1021.9hPa NE 7.2mph /  11.6km/h 8.1mph /  13.0km/h 98% 0in /  0.0mm
01:03 32.7 °F /  0.4 °C 32.2 °F /  0.1 °C 30.2in /  1021.9hPa NNE 6.3mph /  10.1km/h 8.1mph /  13.0km/h 98% 0in /  0.0mm
01:08 32.5 °F /  0.3 °C 32 °F /  0.0 °C 30.2in /  1021.9hPa NE 7.2mph /  11.6km/h 8.1mph /  13.0km/h 98% 0in /  0.0mm
01:13 32.5 °F /  0.3 °C 32 °F /  0.0 °C 30.2in /  1021.9hPa NNE 6.3mph /  10.1km/h 8.1mph /  13.0km/h 98% 0in /  0.0mm
01:18 32.5 °F /  0.3 °C 32 °F /  0.0 °C 30.2in /  1021.9hPa NE 5.8mph /  9.3km/h 7.6mph /  12.2km/h 98% 0in /  0.0mm
01:23 32.5 °F /  0.3 °C 32 °F /  0.0 °C 30.2in /  1021.9hPa North 6.5mph /  10.5km/h 8.5mph /  13.7km/h 98% 0in /  0.0mm
01:28 32.5 °F /  0.3 °C 32 °F /  0.0 °C 30.2in /  1021.9hPa NE 7.4mph /  11.9km/h 8.5mph /  13.7km/h 98% 0in /  0.0mm
01:33 32.5 °F /  0.3 °C 32 °F /  0.0 °C 30.2in /  1021.9hPa NE 6.3mph /  10.1km/h 8.5mph /  13.7km/h 98% 0in /  0.0mm
01:38 32.5 °F /  0.3 °C 32 °F /  0.0 °C 30.2in /  1021.9hPa NE 5.8mph /  9.3km/h 7.8mph /  12.6km/h 98% 0in /  0.0mm
01:43 32.4 °F /  0.2 °C 31.8 °F /  -0.1 °C 30.2in /  1021.9hPa NE 4.3mph /  6.9km/h 7.8mph /  12.6km/h 98% 0in /  0.0mm
01:48 32.4 °F /  0.2 °C 31.8 °F /  -0.1 °C 30.2in /  1021.9hPa NE 7.2mph /  11.6km/h 7.8mph /  12.6km/h 98% 0in /  0.0mm
01:53 32.4 °F /  0.2 °C 31.8 °F /  -0.1 °C 30.2in /  1020.9hPa NE 6.5mph /  10.5km/h 7.8mph /  12.6km/h 98% 0in /  0.0mm
01:58 32.2 °F /  0.1 °C 31.6 °F /  -0.2 °C 30.2in /  1020.9hPa ENE 5.6mph /  9.0km/h 7.8mph /  12.6km/h 98% 0in /  0.0mm
02:03 32.2 °F /  0.1 °C 31.6 °F /  -0.2 °C 30.2in /  1020.9hPa NE 5.8mph /  9.3km/h 7.4mph /  11.9km/h 98% 0in /  0.0mm
02:09 32.2 °F /  0.1 °C 31.6 °F /  -0.2 °C 30.2in /  1020.9hPa NE 5.8mph /  9.3km/h 7.4mph /  11.9km/h 98% 0in /  0.0mm
02:14 32.2 °F /  0.1 °C 31.6 °F /  -0.2 °C 30.2in /  1020.9hPa ENE 5.4mph /  8.7km/h 8.1mph /  13.0km/h 98% 0in /  0.0mm
02:19 32.2 °F /  0.1 °C 31.6 °F /  -0.2 °C 30.2in /  1020.9hPa NE 6mph /  9.7km/h 8.1mph /  13.0km/h 98% 0in /  0.0mm
02:24 32.2 °F /  0.1 °C 31.6 °F /  -0.2 °C 30.2in /  1020.9hPa NE 4.9mph /  7.9km/h 7.8mph /  12.6km/h 98% 0in /  0.0mm
02:29 32.2 °F /  0.1 °C 31.6 °F /  -0.2 °C 30.2in /  1020.9hPa North 4mph /  6.4km/h 7.6mph /  12.2km/h 98% 0in /  0.0mm
02:34 32 °F /  0.0 °C 31.5 °F /  -0.3 °C 30.2in /  1020.9hPa NE 5.4mph /  8.7km/h 7.6mph /  12.2km/h 98% 0in /  0.0mm
02:39 32 °F /  0.0 °C 31.5 °F /  -0.3 °C 30.2in /  1020.9hPa NE 3.1mph /  5.0km/h 7.4mph /  11.9km/h 98% 0in /  0.0mm
02:44 31.8 °F /  -0.1 °C 31.3 °F /  -0.4 °C 30.2in /  1020.9hPa NNE 4mph /  6.4km/h 6.5mph /  10.5km/h 98% 0in /  0.0mm
02:47 31.8 °F /  -0.1 °C 31.3 °F /  -0.4 °C 30.2in /  1020.9hPa NE 6.3mph /  10.1km/h 6.5mph /  10.5km/h 98% 0in /  0.0mm
02:52 31.8 °F /  -0.1 °C 31.3 °F /  -0.4 °C 30.2in /  1020.9hPa NNE 7.2mph /  11.6km/h 7.6mph /  12.2km/h 98% 0in /  0.0mm
02:57 31.8 °F /  -0.1 °C 31.3 °F /  -0.4 °C 30.2in /  1020.9hPa NE 5.4mph /  8.7km/h 7.6mph /  12.2km/h 98% 0in /  0.0mm
03:02 31.6 °F /  -0.2 °C 31.1 °F /  -0.5 °C 30.2in /  1020.9hPa NNE 5.4mph /  8.7km/h 8.1mph /  13.0km/h 98% 0in /  0.0mm
03:07 31.6 °F /  -0.2 °C 31.1 °F /  -0.5 °C 30.2in /  1020.9hPa NE 6mph /  9.7km/h 7.6mph /  12.2km/h 98% 0in /  0.0mm
03:12 31.5 °F /  -0.3 °C 30.9 °F /  -0.6 °C 30.2in /  1020.9hPa North 5.8mph /  9.3km/h 7.4mph /  11.9km/h 98% 0in /  0.0mm
03:13 31.5 °F /  -0.3 °C 30.9 °F /  -0.6 °C 30.2in /  1020.9hPa North 5.4mph /  8.7km/h 7.4mph /  11.9km/h 98% 0in /  0.0mm
03:18 31.5 °F /  -0.3 °C 30.9 °F /  -0.6 °C 30.2in /  1020.9hPa NNE 4.3mph /  6.9km/h 7.4mph /  11.9km/h 98% 0in /  0.0mm
03:23 31.5 °F /  -0.3 °C 30.9 °F /  -0.6 °C 30.2in /  1020.9hPa NNE 5.4mph /  8.7km/h 7.2mph /  11.6km/h 98% 0in /  0.0mm
03:28 31.3 °F /  -0.4 °C 30.7 °F /  -0.7 °C 30.2in /  1020.9hPa NE 6.3mph /  10.1km/h 6.7mph /  10.8km/h 98% 0in /  0.0mm
03:33 31.3 °F /  -0.4 °C 30.7 °F /  -0.7 °C 30.2in /  1020.9hPa NE 5.4mph /  8.7km/h 6.7mph /  10.8km/h 98% 0in /  0.0mm
03:38 31.3 °F /  -0.4 °C 30.7 °F /  -0.7 °C 30.2in /  1020.9hPa NNE 3.8mph /  6.1km/h 6mph /  9.7km/h 98% 0in /  0.0mm
03:40 31.3 °F /  -0.4 °C 30.7 °F /  -0.7 °C 30.2in /  1020.9hPa NNE 4.7mph /  7.6km/h 6.3mph /  10.1km/h 98% 0in /  0.0mm
03:43 31.3 °F /  -0.4 °C 30.7 °F /  -0.7 °C 30.2in /  1020.9hPa NE 6.3mph /  10.1km/h 6.5mph /  10.5km/h 98% 0in /  0.0mm
03:48 31.3 °F /  -0.4 °C 30.7 °F /  -0.7 °C 30.2in /  1020.9hPa NNE 6mph /  9.7km/h 6.5mph /  10.5km/h 98% 0in /  0.0mm
03:53 31.3 °F /  -0.4 °C 30.7 °F /  -0.7 °C 30.1in /  1019.9hPa NE 5.4mph /  8.7km/h 6.3mph /  10.1km/h 98% 0in /  0.0mm
03:58 31.3 °F /  -0.4 °C 30.7 °F /  -0.7 °C 30.1in /  1019.9hPa North 5.6mph /  9.0km/h 6.5mph /  10.5km/h 98% 0in /  0.0mm
04:03 31.3 °F /  -0.4 °C 30.7 °F /  -0.7 °C 30.1in /  1019.9hPa NE 4.9mph /  7.9km/h 6.5mph /  10.5km/h 98% 0in /  0.0mm
04:08 31.3 °F /  -0.4 °C 30.7 °F /  -0.7 °C 30.2in /  1020.9hPa NNE 3.1mph /  5.0km/h 6.3mph /  10.1km/h 98% 0in /  0.0mm
04:13 31.3 °F /  -0.4 °C 30.7 °F /  -0.7 °C 30.2in /  1020.9hPa NE 5.8mph /  9.3km/h 6.3mph /  10.1km/h 98% 0in /  0.0mm
04:18 31.3 °F /  -0.4 °C 30.7 °F /  -0.7 °C 30.2in /  1020.9hPa NNE 4.7mph /  7.6km/h 5.8mph /  9.3km/h 98% 0in /  0.0mm
04:23 31.3 °F /  -0.4 °C 30.7 °F /  -0.7 °C 30.2in /  1020.9hPa NE 3.1mph /  5.0km/h 5.8mph /  9.3km/h 98% 0in /  0.0mm
04:28 31.1 °F /  -0.5 °C 30.6 °F /  -0.8 °C 30.2in /  1020.9hPa NE 2.9mph /  4.7km/h 5.8mph /  9.3km/h 98% 0in /  0.0mm
04:33 31.1 °F /  -0.5 °C 30.6 °F /  -0.8 °C 30.2in /  1020.9hPa NE 5.6mph /  9.0km/h 5.6mph /  9.0km/h 98% 0in /  0.0mm
04:38 31.1 °F /  -0.5 °C 30.6 °F /  -0.8 °C 30.2in /  1020.9hPa ENE 5.4mph /  8.7km/h 5.6mph /  9.0km/h 98% 0in /  0.0mm
04:43 31.1 °F /  -0.5 °C 30.6 °F /  -0.8 °C 30.2in /  1020.9hPa East 1.6mph /  2.6km/h 6.3mph /  10.1km/h 98% 0in /  0.0mm
04:48 31.1 °F /  -0.5 °C 30.6 °F /  -0.8 °C 30.2in /  1020.9hPa NE 4.9mph /  7.9km/h 7.2mph /  11.6km/h 98% 0in /  0.0mm
04:53 31.1 °F /  -0.5 °C 30.6 °F /  -0.8 °C 30.2in /  1020.9hPa NE 4.9mph /  7.9km/h 7.4mph /  11.9km/h 98% 0in /  0.0mm
04:58 31.1 °F /  -0.5 °C 30.6 °F /  -0.8 °C 30.2in /  1020.9hPa East 5.4mph /  8.7km/h 8.1mph /  13.0km/h 98% 0in /  0.0mm
05:03 31.1 °F /  -0.5 °C 30.6 °F /  -0.8 °C 30.2in /  1020.9hPa ENE 3.6mph /  5.8km/h 8.1mph /  13.0km/h 98% 0in /  0.0mm
05:08 31.1 °F /  -0.5 °C 30.6 °F /  -0.8 °C 30.2in /  1020.9hPa ENE 6.7mph /  10.8km/h 7.4mph /  11.9km/h 98% 0in /  0.0mm
05:13 31.1 °F /  -0.5 °C 30.6 °F /  -0.8 °C 30.2in /  1020.9hPa ENE 3.8mph /  6.1km/h 8.1mph /  13.0km/h 98% 0in /  0.0mm
05:16 31.1 °F /  -0.5 °C 30.6 °F /  -0.8 °C 30.2in /  1020.9hPa ENE 5.4mph /  8.7km/h 8.1mph /  13.0km/h 98% 0in /  0.0mm
05:21 31.1 °F /  -0.5 °C 30.6 °F /  -0.8 °C 30.2in /  1020.9hPa East 3.6mph /  5.8km/h 8.1mph /  13.0km/h 98% 0in /  0.0mm
05:26 31.1 °F /  -0.5 °C 30.6 °F /  -0.8 °C 30.2in /  1020.9hPa East 3.6mph /  5.8km/h 6.5mph /  10.5km/h 98% 0in /  0.0mm
05:28 31.1 °F /  -0.5 °C 30.6 °F /  -0.8 °C 30.2in /  1020.9hPa ENE 4.3mph /  6.9km/h 6.5mph /  10.5km/h 98% 0in /  0.0mm
05:33 31.1 °F /  -0.5 °C 30.6 °F /  -0.8 °C 30.2in /  1020.9hPa ENE 4mph /  6.4km/h 6.3mph /  10.1km/h 98% 0in /  0.0mm
05:38 31.1 °F /  -0.5 °C 30.6 °F /  -0.8 °C 30.2in /  1020.9hPa NNE 4.3mph /  6.9km/h 6.3mph /  10.1km/h 98% 0in /  0.0mm
05:43 31.1 °F /  -0.5 °C 30.6 °F /  -0.8 °C 30.2in /  1020.9hPa NE 5.8mph /  9.3km/h 6.3mph /  10.1km/h 98% 0in /  0.0mm
05:48 31.1 °F /  -0.5 °C 30.6 °F /  -0.8 °C 30.2in /  1020.9hPa ENE 5.6mph /  9.0km/h 7.6mph /  12.2km/h 98% 0in /  0.0mm
05:53 31.1 °F /  -0.5 °C 30.6 °F /  -0.8 °C 30.2in /  1020.9hPa ENE 6mph /  9.7km/h 7.6mph /  12.2km/h 98% 0in /  0.0mm
05:58 31.1 °F /  -0.5 °C 30.6 °F /  -0.8 °C 30.2in /  1020.9hPa NE 6.3mph /  10.1km/h 7.6mph /  12.2km/h 98% 0in /  0.0mm
06:03 30.9 °F /  -0.6 °C 30.4 °F /  -0.9 °C 30.2in /  1020.9hPa NE 7.4mph /  11.9km/h 8.7mph /  14.0km/h 98% 0in /  0.0mm
06:08 30.9 °F /  -0.6 °C 30.4 °F /  -0.9 °C 30.2in /  1020.9hPa NNE 5.8mph /  9.3km/h 8.7mph /  14.0km/h 98% 0in /  0.0mm
06:13 30.7 °F /  -0.7 °C 30.4 °F /  -0.9 °C 30.2in /  1020.9hPa NNE 5.6mph /  9.0km/h 8.5mph /  13.7km/h 98% 0in /  0.0mm
06:18 30.6 °F /  -0.8 °C 30 °F /  -1.1 °C 30.2in /  1020.9hPa NE 5.8mph /  9.3km/h 7.6mph /  12.2km/h 98% 0in /  0.0mm
06:23 30.6 °F /  -0.8 °C 30 °F /  -1.1 °C 30.2in /  1020.9hPa NNE 5.8mph /  9.3km/h 7.2mph /  11.6km/h 98% 0in /  0.0mm
06:28 30.6 °F /  -0.8 °C 30 °F /  -1.1 °C 30.2in /  1020.9hPa NNE 4.9mph /  7.9km/h 6.7mph /  10.8km/h 98% 0in /  0.0mm
06:33 30.4 °F /  -0.9 °C 29.8 °F /  -1.2 °C 30.2in /  1020.9hPa NNE 4mph /  6.4km/h 7.6mph /  12.2km/h 98% 0in /  0.0mm
06:38 30.4 °F /  -0.9 °C 29.8 °F /  -1.2 °C 30.2in /  1020.9hPa NNE 6mph /  9.7km/h 7.6mph /  12.2km/h 98% 0in /  0.0mm
06:43 30.4 °F /  -0.9 °C 29.8 °F /  -1.2 °C 30.2in /  1020.9hPa NNE 8.5mph /  13.7km/h 9.8mph /  15.8km/h 98% 0in /  0.0mm
06:48 30.4 °F /  -0.9 °C 29.8 °F /  -1.2 °C 30.2in /  1020.9hPa NE 4.9mph /  7.9km/h 9.8mph /  15.8km/h 98% 0in /  0.0mm
06:53 30.4 °F /  -0.9 °C 29.8 °F /  -1.2 °C 30.2in /  1020.9hPa NE 8.5mph /  13.7km/h 9.4mph /  15.1km/h 98% 0in /  0.0mm
06:58 30.2 °F /  -1.0 °C 29.7 °F /  -1.3 °C 30.2in /  1020.9hPa NE 4.9mph /  7.9km/h 8.7mph /  14.0km/h 98% 0in /  0.0mm
07:03 30.2 °F /  -1.0 °C 29.7 °F /  -1.3 °C 30.2in /  1020.9hPa NE 6.3mph /  10.1km/h 8.7mph /  14.0km/h 98% 0in /  0.0mm
07:08 30.2 °F /  -1.0 °C 29.7 °F /  -1.3 °C 30.2in /  1020.9hPa NE 6mph /  9.7km/h 7.8mph /  12.6km/h 98% 0in /  0.0mm
07:13 30.2 °F /  -1.0 °C 29.7 °F /  -1.3 °C 30.2in /  1020.9hPa NE 5.6mph /  9.0km/h 10.3mph /  16.6km/h 98% 0in /  0.0mm
07:18 30.2 °F /  -1.0 °C 29.7 °F /  -1.3 °C 30.2in /  1020.9hPa NE 8.1mph /  13.0km/h 10.3mph /  16.6km/h 98% 0in /  0.0mm
07:23 30.2 °F /  -1.0 °C 29.7 °F /  -1.3 °C 30.2in /  1020.9hPa North 5.8mph /  9.3km/h 9.6mph /  15.4km/h 98% 0in /  0.0mm
07:28 30.2 °F /  -1.0 °C 29.7 °F /  -1.3 °C 30.2in /  1020.9hPa NE 7.8mph /  12.6km/h 9.6mph /  15.4km/h 98% 0in /  0.0mm
07:33 30.2 °F /  -1.0 °C 29.7 °F /  -1.3 °C 30.2in /  1020.9hPa NNE 6.3mph /  10.1km/h 8.7mph /  14.0km/h 98% 0in /  0.0mm
07:38 30.2 °F /  -1.0 °C 29.7 °F /  -1.3 °C 30.2in /  1020.9hPa NE 7.4mph /  11.9km/h 8.5mph /  13.7km/h 98% 0in /  0.0mm
07:43 30.2 °F /  -1.0 °C 29.7 °F /  -1.3 °C 30.2in /  1020.9hPa NE 5.6mph /  9.0km/h 8.5mph /  13.7km/h 98% 0in /  0.0mm
07:48 30.2 °F /  -1.0 °C 29.7 °F /  -1.3 °C 30.2in /  1020.9hPa NE 7.8mph /  12.6km/h 8.5mph /  13.7km/h 98% 0in /  0.0mm
07:53 30.2 °F /  -1.0 °C 29.7 °F /  -1.3 °C 30.2in /  1020.9hPa NE 7.2mph /  11.6km/h 9.8mph /  15.8km/h 98% 0in /  0.0mm
07:58 30 °F /  -1.1 °C 29.7 °F /  -1.3 °C 30.2in /  1020.9hPa NE 6.5mph /  10.5km/h 9.8mph /  15.8km/h 98% 0in /  0.0mm
08:03 30 °F /  -1.1 °C 29.7 °F /  -1.3 °C 30.2in /  1020.9hPa North 5.8mph /  9.3km/h 8.5mph /  13.7km/h 98% 0in /  0.0mm
08:08 30 °F /  -1.1 °C 29.7 °F /  -1.3 °C 30.2in /  1020.9hPa NE 5.8mph /  9.3km/h 8.5mph /  13.7km/h 98% 0in /  0.0mm
08:13 30 °F /  -1.1 °C 29.7 °F /  -1.3 °C 30.2in /  1020.9hPa NE 5.4mph /  8.7km/h 8.5mph /  13.7km/h 98% 0in /  0.0mm
08:18 29.8 °F /  -1.2 °C 29.5 °F /  -1.4 °C 30.2in /  1020.9hPa NNE 7.4mph /  11.9km/h 9.6mph /  15.4km/h 98% 0in /  0.0mm
08:23 29.8 °F /  -1.2 °C 29.5 °F /  -1.4 °C 30.2in /  1021.9hPa NE 6mph /  9.7km/h 10.1mph /  16.3km/h 98% 0in /  0.0mm
08:28 29.7 °F /  -1.3 °C 29.1 °F /  -1.6 °C 30.2in /  1021.9hPa ENE 7.6mph /  12.2km/h 10.1mph /  16.3km/h 98% 0in /  0.0mm
08:33 29.7 °F /  -1.3 °C 29.1 °F /  -1.6 °C 30.2in /  1021.9hPa NE 5.8mph /  9.3km/h 9.2mph /  14.8km/h 98% 0in /  0.0mm
08:38 29.7 °F /  -1.3 °C 29.1 °F /  -1.6 °C 30.2in /  1020.9hPa ENE 7.8mph /  12.6km/h 8.5mph /  13.7km/h 98% 0in /  0.0mm
08:43 29.7 °F /  -1.3 °C 29.1 °F /  -1.6 °C 30.2in /  1020.9hPa NE 4mph /  6.4km/h 8.5mph /  13.7km/h 98% 0in /  0.0mm
08:48 29.7 °F /  -1.3 °C 29.1 °F /  -1.6 °C 30.2in /  1020.9hPa NE 3.8mph /  6.1km/h 7.8mph /  12.6km/h 98% 0in /  0.0mm
08:53 29.7 °F /  -1.3 °C 29.1 °F /  -1.6 °C 30.2in /  1020.9hPa NE 5.8mph /  9.3km/h 7.8mph /  12.6km/h 98% 0in /  0.0mm
08:58 29.7 °F /  -1.3 °C 29.1 °F /  -1.6 °C 30.2in /  1020.9hPa NE 2.7mph /  4.3km/h 7.8mph /  12.6km/h 98% 0in /  0.0mm
09:03 29.7 °F /  -1.3 °C 29.1 °F /  -1.6 °C 30.2in /  1020.9hPa NE 5.8mph /  9.3km/h 7.8mph /  12.6km/h 98% 0in /  0.0mm
09:08 29.7 °F /  -1.3 °C 29.1 °F /  -1.6 °C 30.2in /  1020.9hPa NE 6.5mph /  10.5km/h 7.8mph /  12.6km/h 98% 0in /  0.0mm
09:13 29.7 °F /  -1.3 °C 29.1 °F /  -1.6 °C 30.2in /  1020.9hPa ENE 5.6mph /  9.0km/h 8.7mph /  14.0km/h 98% 0in /  0.0mm
09:18 29.7 °F /  -1.3 °C 29.1 °F /  -1.6 °C 30.2in /  1020.9hPa NE 3.6mph /  5.8km/h 8.7mph /  14.0km/h 98% 0in /  0.0mm
09:23 29.8 °F /  -1.2 °C 29.5 °F /  -1.4 °C 30.2in /  1020.9hPa NE 5.6mph /  9.0km/h 6.3mph /  10.1km/h 98% 0in /  0.0mm
09:28 29.8 °F /  -1.2 °C 29.5 °F /  -1.4 °C 30.2in /  1020.9hPa ENE 2.7mph /  4.3km/h 6.3mph /  10.1km/h 98% 0in /  0.0mm
09:33 29.8 °F /  -1.2 °C 29.5 °F /  -1.4 °C 30.2in /  1020.9hPa NE 5.4mph /  8.7km/h 8.5mph /  13.7km/h 98% 0in /  0.0mm
09:38 30 °F /  -1.1 °C 29.7 °F /  -1.3 °C 30.1in /  1019.9hPa ENE 6.3mph /  10.1km/h 8.5mph /  13.7km/h 98% 0in /  0.0mm
09:43 30 °F /  -1.1 °C 29.7 °F /  -1.3 °C 30.1in /  1019.9hPa ENE 3.8mph /  6.1km/h 7.8mph /  12.6km/h 98% 0in /  0.0mm
09:48 30.2 °F /  -1.0 °C 29.7 °F /  -1.3 °C 30.1in /  1019.9hPa NE 5.4mph /  8.7km/h 6.9mph /  11.1km/h 98% 0in /  0.0mm
09:53 30.2 °F /  -1.0 °C 29.7 °F /  -1.3 °C 30.2in /  1020.9hPa NE 5.6mph /  9.0km/h 8.1mph /  13.0km/h 98% 0in /  0.0mm
09:58 30 °F /  -1.1 °C 29.7 °F /  -1.3 °C 30.2in /  1020.9hPa ENE 6mph /  9.7km/h 8.5mph /  13.7km/h 98% 0in /  0.0mm
10:03 30 °F /  -1.1 °C 29.7 °F /  -1.3 °C 30.2in /  1020.9hPa NE 5.4mph /  8.7km/h 8.5mph /  13.7km/h 98% 0in /  0.0mm
10:08 30 °F /  -1.1 °C 29.7 °F /  -1.3 °C 30.1in /  1019.9hPa NNE 3.8mph /  6.1km/h 7.6mph /  12.2km/h 98% 0in /  0.0mm
10:13 30 °F /  -1.1 °C 29.7 °F /  -1.3 °C 30.1in /  1019.9hPa NE 4.3mph /  6.9km/h 6.5mph /  10.5km/h 98% 0in /  0.0mm
10:18 30 °F /  -1.1 °C 29.7 °F /  -1.3 °C 30.1in /  1019.9hPa NNE 2.7mph /  4.3km/h 8.1mph /  13.0km/h 98% 0in /  0.0mm
10:23 30.2 °F /  -1.0 °C 29.7 °F /  -1.3 °C 30.1in /  1019.9hPa NE 6.3mph /  10.1km/h 8.1mph /  13.0km/h 98% 0in /  0.0mm
10:28 30.4 °F /  -0.9 °C 29.7 °F /  -1.3 °C 30.1in /  1019.9hPa NNE 7.6mph /  12.2km/h 7.6mph /  12.2km/h 97% 0in /  0.0mm
10:33 30.7 °F /  -0.7 °C 30.4 °F /  -0.9 °C 30.1in /  1019.9hPa NE 3.8mph /  6.1km/h 7.6mph /  12.2km/h 98% 0in /  0.0mm
10:38 30.9 °F /  -0.6 °C 30.2 °F /  -1.0 °C 30.2in /  1020.9hPa NE 5.4mph /  8.7km/h 8.1mph /  13.0km/h 97% 0in /  0.0mm
10:43 31.1 °F /  -0.5 °C 30.4 °F /  -0.9 °C 30.2in /  1020.9hPa NNE 5.6mph /  9.0km/h 8.1mph /  13.0km/h 97% 0in /  0.0mm
10:48 30.9 °F /  -0.6 °C 30.2 °F /  -1.0 °C 30.2in /  1020.9hPa NE 3.4mph /  5.5km/h 8.1mph /  13.0km/h 97% 0in /  0.0mm
10:53 31.1 °F /  -0.5 °C 30.4 °F /  -0.9 °C 30.2in /  1020.9hPa NE 6mph /  9.7km/h 8.1mph /  13.0km/h 97% 0in /  0.0mm
10:58 31.1 °F /  -0.5 °C 30.4 °F /  -0.9 °C 30.2in /  1020.9hPa NE 6mph /  9.7km/h 17.9mph /  28.8km/h 97% 0in /  0.0mm
11:03 31.1 °F /  -0.5 °C 30.4 °F /  -0.9 °C 30.2in /  1020.9hPa NNE 6.5mph /  10.5km/h 17.9mph /  28.8km/h 97% 0in /  0.0mm
11:08 31.3 °F /  -0.4 °C 30.4 °F /  -0.9 °C 30.2in /  1021.9hPa NE 5.6mph /  9.0km/h 8.1mph /  13.0km/h 96% 0in /  0.0mm
11:13 31.5 °F /  -0.3 °C 30.6 °F /  -0.8 °C 30.2in /  1021.9hPa NNE 4.3mph /  6.9km/h 8.1mph /  13.0km/h 96% 0in /  0.0mm
11:18 31.6 °F /  -0.2 °C 30.6 °F /  -0.8 °C 30.2in /  1021.9hPa Calm   7.6mph /  12.2km/h 96% 0in /  0.0mm
11:23 31.8 °F /  -0.1 °C 30.7 °F /  -0.7 °C 30.2in /  1021.9hPa North 4.3mph /  6.9km/h 7.6mph /  12.2km/h 96% 0in /  0.0mm
11:28 31.6 °F /  -0.2 °C 30.6 °F /  -0.8 °C 30.2in /  1021.9hPa NNE 5.8mph /  9.3km/h 7.8mph /  12.6km/h 96% 0in /  0.0mm
11:33 31.6 °F /  -0.2 °C 30.4 °F /  -0.9 °C 30.2in /  1021.9hPa NE 7.8mph /  12.6km/h 17.9mph /  28.8km/h 95% 0in /  0.0mm
11:38 31.8 °F /  -0.1 °C 30.6 °F /  -0.8 °C 30.2in /  1020.9hPa NE 3.8mph /  6.1km/h 17.9mph /  28.8km/h 95% 0in /  0.0mm
11:43 31.8 °F /  -0.1 °C 30.6 °F /  -0.8 °C 30.2in /  1020.9hPa NE 6.9mph /  11.1km/h 7.6mph /  12.2km/h 95% 0in /  0.0mm
11:48 31.8 °F /  -0.1 °C 30.6 °F /  -0.8 °C 30.2in /  1020.9hPa NNE 6.3mph /  10.1km/h 7.6mph /  12.2km/h 95% 0in /  0.0mm
11:53 31.8 °F /  -0.1 °C 30.4 °F /  -0.9 °C 30.2in /  1021.9hPa NE 6.3mph /  10.1km/h 8.7mph /  14.0km/h 94% 0in /  0.0mm
11:58 31.8 °F /  -0.1 °C 30.4 °F /  -0.9 °C 30.2in /  1021.9hPa NNE 7.4mph /  11.9km/h 10.5mph /  16.9km/h 94% 0in /  0.0mm
12:03 31.8 °F /  -0.1 °C 30.4 °F /  -0.9 °C 30.2in /  1021.9hPa NE 6.3mph /  10.1km/h 10.5mph /  16.9km/h 94% 0in /  0.0mm
12:08 31.8 °F /  -0.1 °C 30.4 °F /  -0.9 °C 30.2in /  1020.9hPa NNE 7.8mph /  12.6km/h 9.2mph /  14.8km/h 94% 0in /  0.0mm
12:13 31.8 °F /  -0.1 °C 30.4 °F /  -0.9 °C 30.2in /  1020.9hPa NE 4.3mph /  6.9km/h 9.2mph /  14.8km/h 94% 0in /  0.0mm
12:18 31.8 °F /  -0.1 °C 30 °F /  -1.1 °C 30.2in /  1020.9hPa NNE 8.5mph /  13.7km/h 10.3mph /  16.6km/h 93% 0in /  0.0mm
12:23 31.8 °F /  -0.1 °C 30 °F /  -1.1 °C 30.2in /  1020.9hPa NNE 7.6mph /  12.2km/h 10.3mph /  16.6km/h 93% 0in /  0.0mm
12:28 32 °F /  0.0 °C 30.2 °F /  -1.0 °C 30.2in /  1020.9hPa ENE 9.6mph /  15.4km/h 10.5mph /  16.9km/h 93% 0in /  0.0mm
12:33 32.2 °F /  0.1 °C 30.4 °F /  -0.9 °C 30.2in /  1020.9hPa NE 4.9mph /  7.9km/h 10.5mph /  16.9km/h 93% 0in /  0.0mm
12:38 32.5 °F /  0.3 °C 30.7 °F /  -0.7 °C 30.2in /  1020.9hPa NNE 4.9mph /  7.9km/h 9.8mph /  15.8km/h 93% 0in /  0.0mm
12:43 32.7 °F /  0.4 °C 30.9 °F /  -0.6 °C 30.2in /  1020.9hPa NE 7.8mph /  12.6km/h 9.8mph /  15.8km/h 93% 0in /  0.0mm
12:48 32.7 °F /  0.4 °C 30.9 °F /  -0.6 °C 30.2in /  1020.9hPa NE 10.1mph /  16.3km/h 10.1mph /  16.3km/h 93% 0in /  0.0mm
12:53 32.5 °F /  0.3 °C 30.2 °F /  -1.0 °C 30.2in /  1020.9hPa NE 9.8mph /  15.8km/h 10.7mph /  17.2km/h 91% 0in /  0.0mm
12:58 32.5 °F /  0.3 °C 29.8 °F /  -1.2 °C 30.2in /  1020.9hPa NNE 9.8mph /  15.8km/h 11.4mph /  18.3km/h 90% 0in /  0.0mm
13:03 32.7 °F /  0.4 °C 30 °F /  -1.1 °C 30.2in /  1020.9hPa NE 8.7mph /  14.0km/h 11.4mph /  18.3km/h 90% 0in /  0.0mm
13:08 32.7 °F /  0.4 °C 29.8 °F /  -1.2 °C 30.2in /  1020.9hPa NNE 7.8mph /  12.6km/h 10.7mph /  17.2km/h 89% 0in /  0.0mm
13:13 32.7 °F /  0.4 °C 29.8 °F /  -1.2 °C 30.2in /  1020.9hPa NE 7.6mph /  12.2km/h 12.3mph /  19.8km/h 89% 0in /  0.0mm
13:18 32.7 °F /  0.4 °C 29.8 °F /  -1.2 °C 30.2in /  1020.9hPa NNE 6.5mph /  10.5km/h 12.3mph /  19.8km/h 89% 0in /  0.0mm
13:23 33.1 °F /  0.6 °C 30.2 °F /  -1.0 °C 30.1in /  1019.9hPa NE 10.1mph /  16.3km/h 10.1mph /  16.3km/h 89% 0in /  0.0mm
13:28 33.1 °F /  0.6 °C 30.2 °F /  -1.0 °C 30.1in /  1019.9hPa NNE 7.8mph /  12.6km/h 10.3mph /  16.6km/h 89% 0in /  0.0mm
13:33 33.1 °F /  0.6 °C 29.8 °F /  -1.2 °C 30.1in /  1019.9hPa NNE 7.6mph /  12.2km/h 10.7mph /  17.2km/h 88% 0in /  0.0mm
13:38 32.9 °F /  0.5 °C 29.7 °F /  -1.3 °C 30.1in /  1019.9hPa NE 9.8mph /  15.8km/h 11mph /  17.7km/h 88% 0in /  0.0mm
13:43 32.9 °F /  0.5 °C 29.7 °F /  -1.3 °C 30.1in /  1019.9hPa NE 8.7mph /  14.0km/h 11mph /  17.7km/h 88% 0in /  0.0mm
13:44 32.9 °F /  0.5 °C 29.7 °F /  -1.3 °C 30.1in /  1019.9hPa NNE 10.1mph /  16.3km/h 11mph /  17.7km/h 88% 0in /  0.0mm
13:49 32.7 °F /  0.4 °C 29.5 °F /  -1.4 °C 30.1in /  1019.9hPa NE 9.4mph /  15.1km/h 10.7mph /  17.2km/h 88% 0in /  0.0mm
13:54 32.7 °F /  0.4 °C 29.5 °F /  -1.4 °C 30.1in /  1019.9hPa NNE 7.8mph /  12.6km/h 10.5mph /  16.9km/h 88% 0in /  0.0mm
13:59 32.7 °F /  0.4 °C 29.5 °F /  -1.4 °C 30.1in /  1019.9hPa NE 9.6mph /  15.4km/h 11mph /  17.7km/h 88% 0in /  0.0mm
14:04 32.7 °F /  0.4 °C 29.5 °F /  -1.4 °C 30.1in /  1019.9hPa NE 5.4mph /  8.7km/h 11.2mph /  18.0km/h 88% 0in /  0.0mm
14:09 32.7 °F /  0.4 °C 29.5 °F /  -1.4 °C 30.1in /  1019.9hPa ENE 7.4mph /  11.9km/h 11.2mph /  18.0km/h 88% 0in /  0.0mm
14:14 32.7 °F /  0.4 °C 29.5 °F /  -1.4 °C 30.1in /  1019.9hPa NE 8.5mph /  13.7km/h 10.7mph /  17.2km/h 88% 0in /  0.0mm
14:19 32.7 °F /  0.4 °C 29.5 °F /  -1.4 °C 30.1in /  1019.9hPa NE 7.8mph /  12.6km/h 12.5mph /  20.1km/h 88% 0in /  0.0mm
14:24 32.7 °F /  0.4 °C 29.5 °F /  -1.4 °C 30.1in /  1019.9hPa NE 8.9mph /  14.3km/h 12.5mph /  20.1km/h 88% 0in /  0.0mm
14:29 32.7 °F /  0.4 °C 29.3 °F /  -1.5 °C 30.1in /  1019.9hPa East 7.8mph /  12.6km/h 10.5mph /  16.9km/h 87% 0in /  0.0mm
14:34 32.7 °F /  0.4 °C 29.5 °F /  -1.4 °C 30.1in /  1019.9hPa NE 8.5mph /  13.7km/h 10.5mph /  16.9km/h 88% 0in /  0.0mm
14:39 32.7 °F /  0.4 °C 29.5 °F /  -1.4 °C 30.1in /  1019.9hPa NE 7.4mph /  11.9km/h 9.8mph /  15.8km/h 88% 0in /  0.0mm
14:44 32.7 °F /  0.4 °C 29.5 °F /  -1.4 °C 30.1in /  1019.9hPa NE 8.1mph /  13.0km/h 11mph /  17.7km/h 88% 0in /  0.0mm
14:49 32.9 °F /  0.5 °C 29.7 °F /  -1.3 °C 30.1in /  1019.9hPa NNE 6.3mph /  10.1km/h 11mph /  17.7km/h 88% 0in /  0.0mm
14:54 33.1 °F /  0.6 °C 29.8 °F /  -1.2 °C 30.1in /  1019.9hPa NE 8.7mph /  14.0km/h 11mph /  17.7km/h 88% 0in /  0.0mm
14:59 33.1 °F /  0.6 °C 29.8 °F /  -1.2 °C 30.1in /  1019.9hPa NNE 6mph /  9.7km/h 10.1mph /  16.3km/h 88% 0in /  0.0mm
15:04 33.1 °F /  0.6 °C 29.8 °F /  -1.2 °C 30.1in /  1019.9hPa NE 10.5mph /  16.9km/h 10.5mph /  16.9km/h 88% 0in /  0.0mm
15:09 33.1 °F /  0.6 °C 29.7 °F /  -1.3 °C 30.1in /  1018.8hPa ENE 9.8mph /  15.8km/h 11mph /  17.7km/h 87% 0in /  0.0mm
15:14 33.3 °F /  0.7 °C 29.8 °F /  -1.2 °C 30.1in /  1018.8hPa NE 8.5mph /  13.7km/h 11mph /  17.7km/h 87% 0in /  0.0mm
15:19 33.3 °F /  0.7 °C 29.8 °F /  -1.2 °C 30.1in /  1018.8hPa NNE 7.4mph /  11.9km/h 9.2mph /  14.8km/h 87% 0in /  0.0mm
15:24 33.3 °F /  0.7 °C 29.8 °F /  -1.2 °C 30.1in /  1019.9hPa NE 7.4mph /  11.9km/h 8.7mph /  14.0km/h 87% 0in /  0.0mm
15:29 33.1 °F /  0.6 °C 29.8 °F /  -1.2 °C 30.1in /  1019.9hPa North 7.8mph /  12.6km/h 8.7mph /  14.0km/h 88% 0in /  0.0mm
15:35 33.1 °F /  0.6 °C 29.8 °F /  -1.2 °C 30.1in /  1019.9hPa NNE 7.6mph /  12.2km/h 10.3mph /  16.6km/h 88% 0in /  0.0mm
15:40 33.1 °F /  0.6 °C 29.8 °F /  -1.2 °C 30.1in /  1019.9hPa NNE 6.3mph /  10.1km/h 10.3mph /  16.6km/h 88% 0in /  0.0mm
15:45 33.1 °F /  0.6 °C 29.8 °F /  -1.2 °C 30.1in /  1019.9hPa NNE 7.8mph /  12.6km/h 9.6mph /  15.4km/h 88% 0in /  0.0mm
15:50 32.9 °F /  0.5 °C 29.7 °F /  -1.3 °C 30.1in /  1019.9hPa NNE 5.4mph /  8.7km/h 9.6mph /  15.4km/h 88% 0in /  0.0mm
15:55 32.9 °F /  0.5 °C 29.7 °F /  -1.3 °C 30.1in /  1018.8hPa NE 7.6mph /  12.2km/h 10.1mph /  16.3km/h 88% 0in /  0.0mm
16:00 33.1 °F /  0.6 °C 29.8 °F /  -1.2 °C 30.1in /  1018.8hPa NNW 4.9mph /  7.9km/h 10.1mph /  16.3km/h 88% 0in /  0.0mm
16:05 33.1 °F /  0.6 °C 29.8 °F /  -1.2 °C 30.1in /  1018.8hPa NNE 5.6mph /  9.0km/h 9.8mph /  15.8km/h 88% 0in /  0.0mm
16:10 33.1 °F /  0.6 °C 30.2 °F /  -1.0 °C 30.1in /  1018.8hPa NE 8.1mph /  13.0km/h 9.8mph /  15.8km/h 89% 0in /  0.0mm
16:15 32.9 °F /  0.5 °C 30 °F /  -1.1 °C 30.1in /  1018.8hPa North 8.1mph /  13.0km/h 9.8mph /  15.8km/h 89% 0in /  0.0mm
16:20 32.9 °F /  0.5 °C 30 °F /  -1.1 °C 30.1in /  1018.8hPa NNE 7.6mph /  12.2km/h 9.8mph /  15.8km/h 89% 0in /  0.0mm
16:25 32.9 °F /  0.5 °C 30 °F /  -1.1 °C 30.1in /  1018.8hPa NNE 5.8mph /  9.3km/h 9.8mph /  15.8km/h 89% 0in /  0.0mm
16:30 32.9 °F /  0.5 °C 30 °F /  -1.1 °C 30.1in /  1018.8hPa NNE 5.6mph /  9.0km/h 8.1mph /  13.0km/h 89% 0in /  0.0mm
16:35 32.9 °F /  0.5 °C 30 °F /  -1.1 °C 30.1in /  1018.8hPa North 6mph /  9.7km/h 10.1mph /  16.3km/h 89% 0in /  0.0mm
16:40 32.9 °F /  0.5 °C 30 °F /  -1.1 °C 30.1in /  1018.8hPa NNE 5.4mph /  8.7km/h 10.1mph /  16.3km/h 89% 0in /  0.0mm
16:45 32.9 °F /  0.5 °C 30 °F /  -1.1 °C 30.1in /  1018.8hPa NE 6mph /  9.7km/h 9.8mph /  15.8km/h 89% 0in /  0.0mm
16:50 32.9 °F /  0.5 °C 30 °F /  -1.1 °C 30.1in /  1018.8hPa North 7.2mph /  11.6km/h 10.3mph /  16.6km/h 89% 0in /  0.0mm
16:55 32.9 °F /  0.5 °C 30 °F /  -1.1 °C 30.1in /  1019.9hPa NNE 8.7mph /  14.0km/h 10.3mph /  16.6km/h 89% 0in /  0.0mm
17:00 32.7 °F /  0.4 °C 29.8 °F /  -1.2 °C 30.1in /  1019.9hPa NE 7.8mph /  12.6km/h 8.7mph /  14.0km/h 89% 0in /  0.0mm
17:05 32.7 °F /  0.4 °C 29.8 °F /  -1.2 °C 30.1in /  1019.9hPa NE 6.3mph /  10.1km/h 8.7mph /  14.0km/h 89% 0in /  0.0mm
17:10 32.7 °F /  0.4 °C 29.8 °F /  -1.2 °C 30.1in /  1019.9hPa NE 3.8mph /  6.1km/h 8.7mph /  14.0km/h 89% 0in /  0.0mm
17:15 32.7 °F /  0.4 °C 29.8 °F /  -1.2 °C 30.1in /  1019.9hPa NE 6.3mph /  10.1km/h 8.7mph /  14.0km/h 89% 0in /  0.0mm
17:20 32.7 °F /  0.4 °C 29.8 °F /  -1.2 °C 30.1in /  1019.9hPa NNE 8.5mph /  13.7km/h 8.7mph /  14.0km/h 89% 0in /  0.0mm
17:25 32.7 °F /  0.4 °C 29.8 °F /  -1.2 °C 30.1in /  1019.9hPa NE 9.6mph /  15.4km/h 9.6mph /  15.4km/h 89% 0in /  0.0mm
17:30 32.7 °F /  0.4 °C 30 °F /  -1.1 °C 30.1in /  1019.9hPa NNE 5.8mph /  9.3km/h 9.8mph /  15.8km/h 90% 0in /  0.0mm
17:35 32.7 °F /  0.4 °C 30 °F /  -1.1 °C 30.1in /  1019.9hPa NNE 3.8mph /  6.1km/h 9.8mph /  15.8km/h 90% 0in /  0.0mm
17:40 32.7 °F /  0.4 °C 30 °F /  -1.1 °C 30.1in /  1019.9hPa NE 6mph /  9.7km/h 8.7mph /  14.0km/h 90% 0in /  0.0mm
17:45 32.7 °F /  0.4 °C 30 °F /  -1.1 °C 30.1in /  1019.9hPa NE 4.9mph /  7.9km/h 9.6mph /  15.4km/h 90% 0in /  0.0mm
17:50 32.7 °F /  0.4 °C 30 °F /  -1.1 °C 30.1in /  1019.9hPa NNE 3.8mph /  6.1km/h 9.6mph /  15.4km/h 90% 0in /  0.0mm
17:55 32.7 °F /  0.4 °C 30 °F /  -1.1 °C 30.1in /  1019.9hPa NNE 7.4mph /  11.9km/h 7.4mph /  11.9km/h 90% 0in /  0.0mm
18:00 32.7 °F /  0.4 °C 30 °F /  -1.1 °C 30.1in /  1019.9hPa ENE 6.7mph /  10.8km/h 7.6mph /  12.2km/h 90% 0in /  0.0mm
18:03 32.5 °F /  0.3 °C 29.8 °F /  -1.2 °C 30.1in /  1019.9hPa NE 6.5mph /  10.5km/h 7.6mph /  12.2km/h 90% 0in /  0.0mm
18:08 32.5 °F /  0.3 °C 29.8 °F /  -1.2 °C 30.1in /  1019.9hPa ENE 7.2mph /  11.6km/h 7.8mph /  12.6km/h 90% 0in /  0.0mm
18:10 32.5 °F /  0.3 °C 29.8 °F /  -1.2 °C 30.1in /  1019.9hPa NE 6.5mph /  10.5km/h 7.8mph /  12.6km/h 90% 0in /  0.0mm
18:13 32.5 °F /  0.3 °C 29.8 °F /  -1.2 °C 30.1in /  1019.9hPa NNE 5.4mph /  8.7km/h 8.1mph /  13.0km/h 90% 0in /  0.0mm
18:18 32.5 °F /  0.3 °C 29.8 °F /  -1.2 °C 30.1in /  1019.9hPa NE 7.4mph /  11.9km/h 8.1mph /  13.0km/h 90% 0in /  0.0mm
18:21 32.5 °F /  0.3 °C 29.8 °F /  -1.2 °C 30.1in /  1019.9hPa North 6mph /  9.7km/h 8.1mph /  13.0km/h 90% 0in /  0.0mm
18:26 32.5 °F /  0.3 °C 29.8 °F /  -1.2 °C 30.1in /  1018.8hPa NE 5.4mph /  8.7km/h 9.4mph /  15.1km/h 90% 0in /  0.0mm
18:28 32.5 °F /  0.3 °C 29.8 °F /  -1.2 °C 30.1in /  1018.8hPa NE 5.4mph /  8.7km/h 9.4mph /  15.1km/h 90% 0in /  0.0mm
18:31 32.5 °F /  0.3 °C 29.8 °F /  -1.2 °C 30.1in /  1018.8hPa North 4.3mph /  6.9km/h 9.4mph /  15.1km/h 90% 0in /  0.0mm
18:36 32.5 °F /  0.3 °C 29.8 °F /  -1.2 °C 30.1in /  1018.8hPa NE 5.4mph /  8.7km/h 6.9mph /  11.1km/h 90% 0in /  0.0mm
18:38 32.5 °F /  0.3 °C 29.8 °F /  -1.2 °C 30.1in /  1019.9hPa ENE 6mph /  9.7km/h 8.7mph /  14.0km/h 90% 0in /  0.0mm
18:43 32.5 °F /  0.3 °C 29.8 °F /  -1.2 °C 30.1in /  1019.9hPa NE 6.5mph /  10.5km/h 8.7mph /  14.0km/h 90% 0in /  0.0mm
18:48 32.5 °F /  0.3 °C 29.8 °F /  -1.2 °C 30.1in /  1019.9hPa North 3.6mph /  5.8km/h 7.8mph /  12.6km/h 90% 0in /  0.0mm
18:49 32.5 °F /  0.3 °C 29.8 °F /  -1.2 °C 30.1in /  1019.9hPa NNE 5.4mph /  8.7km/h 7.8mph /  12.6km/h 90% 0in /  0.0mm
18:53 32.5 °F /  0.3 °C 30.2 °F /  -1.0 °C 30.1in /  1019.9hPa North 5.4mph /  8.7km/h 7.8mph /  12.6km/h 91% 0in /  0.0mm
18:58 32.5 °F /  0.3 °C 30.2 °F /  -1.0 °C 30.1in /  1019.9hPa NE 4.3mph /  6.9km/h 7.8mph /  12.6km/h 91% 0in /  0.0mm
19:03 32.5 °F /  0.3 °C 30.2 °F /  -1.0 °C 30.1in /  1019.9hPa NNE 3.6mph /  5.8km/h 7.2mph /  11.6km/h 91% 0in /  0.0mm
19:08 32.5 °F /  0.3 °C 30.2 °F /  -1.0 °C 30.1in /  1019.9hPa NNE 4.9mph /  7.9km/h 7.4mph /  11.9km/h 91% 0in /  0.0mm
19:13 32.5 °F /  0.3 °C 29.8 °F /  -1.2 °C 30.1in /  1019.9hPa NE 7.4mph /  11.9km/h 8.5mph /  13.7km/h 90% 0in /  0.0mm
19:18 32.5 °F /  0.3 °C 29.8 °F /  -1.2 °C 30.1in /  1019.9hPa NNE 7.6mph /  12.2km/h 8.5mph /  13.7km/h 90% 0in /  0.0mm
19:23 32.5 °F /  0.3 °C 29.8 °F /  -1.2 °C 30.1in /  1018.8hPa NNW 5.6mph /  9.0km/h 7.6mph /  12.2km/h 90% 0in /  0.0mm
19:28 32.5 °F /  0.3 °C 30.2 °F /  -1.0 °C 30.1in /  1018.8hPa NE 6.7mph /  10.8km/h 7.6mph /  12.2km/h 91% 0in /  0.0mm
19:33 32.5 °F /  0.3 °C 30.2 °F /  -1.0 °C 30.1in /  1018.8hPa NE 5.6mph /  9.0km/h 6.7mph /  10.8km/h 91% 0in /  0.0mm
19:38 32.5 °F /  0.3 °C 30.2 °F /  -1.0 °C 30.2in /  1020.9hPa North 6mph /  9.7km/h 6.5mph /  10.5km/h 91% 0in /  0.0mm
19:43 32.4 °F /  0.2 °C 30 °F /  -1.1 °C 30.2in /  1020.9hPa NE 4.3mph /  6.9km/h 6.5mph /  10.5km/h 91% 0in /  0.0mm
19:48 32.4 °F /  0.2 °C 30 °F /  -1.1 °C 30.2in /  1020.9hPa NE 7.2mph /  11.6km/h 7.2mph /  11.6km/h 91% 0in /  0.0mm
19:53 32.4 °F /  0.2 °C 30 °F /  -1.1 °C 30.1in /  1019.9hPa NE 5.8mph /  9.3km/h 7.2mph /  11.6km/h 91% 0in /  0.0mm
19:58 32.4 °F /  0.2 °C 30 °F /  -1.1 °C 30.1in /  1019.9hPa ENE 4.9mph /  7.9km/h 7.6mph /  12.2km/h 91% 0in /  0.0mm
20:03 32.4 °F /  0.2 °C 30 °F /  -1.1 °C 30.1in /  1019.9hPa NNE 4.9mph /  7.9km/h 7.6mph /  12.2km/h 91% 0in /  0.0mm
20:08 32.4 °F /  0.2 °C 30 °F /  -1.1 °C 30.1in /  1019.9hPa NE 5.8mph /  9.3km/h 6.7mph /  10.8km/h 91% 0in /  0.0mm
20:13 32.4 °F /  0.2 °C 30 °F /  -1.1 °C 30.1in /  1019.9hPa NNE 6.5mph /  10.5km/h 7.8mph /  12.6km/h 91% 0in /  0.0mm
20:18 32.2 °F /  0.1 °C 30 °F /  -1.1 °C 30.1in /  1019.9hPa NE 6.5mph /  10.5km/h 7.8mph /  12.6km/h 92% 0in /  0.0mm
20:23 32.2 °F /  0.1 °C 30 °F /  -1.1 °C 30.1in /  1019.9hPa NE 5.4mph /  8.7km/h 6.5mph /  10.5km/h 92% 0in /  0.0mm
20:28 32.2 °F /  0.1 °C 30 °F /  -1.1 °C 30.1in /  1019.9hPa NNE 3.6mph /  5.8km/h 6.5mph /  10.5km/h 92% 0in /  0.0mm
20:33 32 °F /  0.0 °C 30.2 °F /  -1.0 °C 30.1in /  1019.9hPa NNE 3.8mph /  6.1km/h 6.5mph /  10.5km/h 93% 0in /  0.0mm
20:38 32 °F /  0.0 °C 30.2 °F /  -1.0 °C 30.1in /  1019.9hPa NE 3.8mph /  6.1km/h 6.3mph /  10.1km/h 93% 0in /  0.0mm
20:43 32 °F /  0.0 °C 30.2 °F /  -1.0 °C 30.1in /  1019.9hPa NE 2.7mph /  4.3km/h 5.8mph /  9.3km/h 93% 0in /  0.0mm
20:48 32 °F /  0.0 °C 30.2 °F /  -1.0 °C 30.1in /  1019.9hPa NE 4.3mph /  6.9km/h 5.8mph /  9.3km/h 93% 0in /  0.0mm
20:53 32 °F /  0.0 °C 30.2 °F /  -1.0 °C 30.1in /  1019.9hPa NNE 2.7mph /  4.3km/h 5.8mph /  9.3km/h 93% 0in /  0.0mm
20:59 32 °F /  0.0 °C 30.2 °F /  -1.0 °C 30.1in /  1019.9hPa NNE 3.4mph /  5.5km/h 6mph /  9.7km/h 93% 0in /  0.0mm
21:04 31.8 °F /  -0.1 °C 30.6 °F /  -0.8 °C 30.1in /  1019.9hPa NE 3.8mph /  6.1km/h 6mph /  9.7km/h 95% 0in /  0.0mm
21:09 31.8 °F /  -0.1 °C 30.6 °F /  -0.8 °C 30.1in /  1019.9hPa NNE 3.8mph /  6.1km/h 5.6mph /  9.0km/h 95% 0in /  0.0mm
21:14 31.8 °F /  -0.1 °C 30.6 °F /  -0.8 °C 30.1in /  1019.9hPa NNE 3.4mph /  5.5km/h 5.6mph /  9.0km/h 95% 0in /  0.0mm
21:19 31.8 °F /  -0.1 °C 30.6 °F /  -0.8 °C 30.1in /  1019.9hPa NE 5.6mph /  9.0km/h 6.5mph /  10.5km/h 95% 0in /  0.0mm
21:24 31.8 °F /  -0.1 °C 30.6 °F /  -0.8 °C 30.1in /  1019.9hPa NNE 3.1mph /  5.0km/h 6.5mph /  10.5km/h 95% 0in /  0.0mm
21:29 31.8 °F /  -0.1 °C 30.6 °F /  -0.8 °C 30.1in /  1019.9hPa NE 5.6mph /  9.0km/h 6.5mph /  10.5km/h 95% 0in /  0.0mm
21:34 31.8 °F /  -0.1 °C 30.7 °F /  -0.7 °C 30.1in /  1019.9hPa NE 6mph /  9.7km/h 7.2mph /  11.6km/h 96% 0in /  0.0mm
21:39 31.8 °F /  -0.1 °C 30.7 °F /  -0.7 °C 30.1in /  1019.9hPa NNE 5.4mph /  8.7km/h 7.2mph /  11.6km/h 96% 0in /  0.0mm
21:44 31.8 °F /  -0.1 °C 30.7 °F /  -0.7 °C 30.1in /  1019.9hPa NE 5.6mph /  9.0km/h 6.5mph /  10.5km/h 96% 0in /  0.0mm
21:49 31.8 °F /  -0.1 °C 30.7 °F /  -0.7 °C 30.1in /  1019.9hPa NNE 6mph /  9.7km/h 6.5mph /  10.5km/h 96% 0in /  0.0mm
21:54 31.8 °F /  -0.1 °C 30.7 °F /  -0.7 °C 30.1in /  1018.8hPa North 4.7mph /  7.6km/h 7.2mph /  11.6km/h 96% 0in /  0.0mm
21:59 31.8 °F /  -0.1 °C 30.7 °F /  -0.7 °C 30.1in /  1018.8hPa NE 5.6mph /  9.0km/h 7.2mph /  11.6km/h 96% 0in /  0.0mm
22:04 31.8 °F /  -0.1 °C 30.7 °F /  -0.7 °C 30.1in /  1018.8hPa NNE 3.8mph /  6.1km/h 6.5mph /  10.5km/h 96% 0in /  0.0mm
22:09 31.8 °F /  -0.1 °C 30.7 °F /  -0.7 °C 30.1in /  1019.9hPa NNE 4mph /  6.4km/h 6.5mph /  10.5km/h 96% 0in /  0.0mm
22:14 31.8 °F /  -0.1 °C 31.1 °F /  -0.5 °C 30.1in /  1019.9hPa NNE 5.6mph /  9.0km/h 6.5mph /  10.5km/h 97% 0in /  0.0mm
22:19 31.8 °F /  -0.1 °C 31.1 °F /  -0.5 °C 30.1in /  1019.9hPa NNE 6mph /  9.7km/h 6.3mph /  10.1km/h 97% 0in /  0.0mm
22:24 31.8 °F /  -0.1 °C 31.1 °F /  -0.5 °C 30.1in /  1019.9hPa NNE 3.1mph /  5.0km/h 6mph /  9.7km/h 97% 0in /  0.0mm
22:29 31.8 °F /  -0.1 °C 31.1 °F /  -0.5 °C 30.1in /  1019.9hPa NE 5.8mph /  9.3km/h 6.5mph /  10.5km/h 97% 0in /  0.0mm
22:34 31.8 °F /  -0.1 °C 31.1 °F /  -0.5 °C 30.1in /  1019.9hPa NE 6mph /  9.7km/h 7.8mph /  12.6km/h 97% 0in /  0.0mm
22:39 31.8 °F /  -0.1 °C 31.1 °F /  -0.5 °C 30.1in /  1019.9hPa NNE 3.4mph /  5.5km/h 8.1mph /  13.0km/h 97% 0in /  0.0mm
22:44 32 °F /  0.0 °C 31.3 °F /  -0.4 °C 30.1in /  1019.9hPa NE 3.4mph /  5.5km/h 8.1mph /  13.0km/h 97% 0in /  0.0mm
22:49 32 °F /  0.0 °C 31.3 °F /  -0.4 °C 30.1in /  1019.9hPa North 3.8mph /  6.1km/h 6.7mph /  10.8km/h 97% 0in /  0.0mm
22:54 32 °F /  0.0 °C 31.3 °F /  -0.4 °C 30.1in /  1018.8hPa NNE 3.6mph /  5.8km/h 6.7mph /  10.8km/h 97% 0in /  0.0mm
22:59 32 °F /  0.0 °C 31.3 °F /  -0.4 °C 30.1in /  1018.8hPa NE 4.5mph /  7.2km/h 6.5mph /  10.5km/h 97% 0in /  0.0mm
23:04 32 °F /  0.0 °C 31.3 °F /  -0.4 °C 30.1in /  1018.8hPa NNE 3.8mph /  6.1km/h 6.5mph /  10.5km/h 97% 0in /  0.0mm
23:09 32 °F /  0.0 °C 31.3 °F /  -0.4 °C 30.1in /  1019.9hPa NE 5.4mph /  8.7km/h 6.5mph /  10.5km/h 97% 0in /  0.0mm
23:14 32 °F /  0.0 °C 31.3 °F /  -0.4 °C 30.1in /  1019.9hPa North 3.8mph /  6.1km/h 6.5mph /  10.5km/h 97% 0in /  0.0mm
23:19 32 °F /  0.0 °C 31.3 °F /  -0.4 °C 30.1in /  1019.9hPa NE 3.1mph /  5.0km/h 6.5mph /  10.5km/h 97% 0in /  0.0mm
23:24 32 °F /  0.0 °C 31.3 °F /  -0.4 °C 30.1in /  1019.9hPa NNE 5.4mph /  8.7km/h 5.6mph /  9.0km/h 97% 0in /  0.0mm
23:29 32 °F /  0.0 °C 31.3 °F /  -0.4 °C 30.1in /  1019.9hPa North 4.7mph /  7.6km/h 5.8mph /  9.3km/h 97% 0in /  0.0mm
23:34 32 °F /  0.0 °C 31.3 °F /  -0.4 °C 30.1in /  1019.9hPa NNE 4mph /  6.4km/h 5.8mph /  9.3km/h 97% 0in /  0.0mm
23:39 32.2 °F /  0.1 °C 31.5 °F /  -0.3 °C 30.1in /  1018.8hPa NE 3.4mph /  5.5km/h 5.8mph /  9.3km/h 97% 0in /  0.0mm
23:44 32.2 °F /  0.1 °C 31.5 °F /  -0.3 °C 30.1in /  1018.8hPa NNE 4mph /  6.4km/h 5.8mph /  9.3km/h 97% 0in /  0.0mm
23:49 32.2 °F /  0.1 °C 31.5 °F /  -0.3 °C 30.1in /  1018.8hPa North 2.9mph /  4.7km/h 5.6mph /  9.0km/h 97% 0in /  0.0mm
23:54 32.2 °F /  0.1 °C 31.5 °F /  -0.3 °C 30.1in /  1019.9hPa NNE 3.8mph /  6.1km/h 6.5mph /  10.5km/h 97% 0in /  0.0mm
23:59 32.2 °F /  0.1 °C 31.5 °F /  -0.3 °C 30.1in /  1019.9hPa North 4.7mph /  7.6km/h 6.5mph /  10.5km/h 97% 0in /  0.0mm
Données Historique de Météo Turbie

Mise a jour : 20/05/2018 19:26:13
Généré par Cumulus 1.9.4 (1099)